createdAt,value
2023-04-12T00:00:11.482Z,98401.53
2023-04-12T00:02:40.603Z,98401.47
2023-04-12T00:05:09.880Z,98387.69
2023-04-12T00:07:39.392Z,98388.75
2023-04-12T00:10:09.552Z,98387.09
2023-04-12T00:12:41.045Z,98380.41
2023-04-12T00:15:10.545Z,98367.53
2023-04-12T00:17:38.932Z,98361.41
2023-04-12T00:20:12.363Z,98365.31
2023-04-12T00:22:41.616Z,98356.44
2023-04-12T00:25:10.394Z,98352.56
2023-04-12T00:27:40.807Z,98351.69
2023-04-12T00:30:09.885Z,98343.34
2023-04-12T00:32:38.062Z,98339.06
2023-04-12T00:35:07.099Z,98330.94
2023-04-12T00:37:36.455Z,98323.09
2023-04-12T00:40:07.165Z,98316.16
2023-04-12T00:42:35.694Z,98307.47
2023-04-12T00:45:07.067Z,98302.84
2023-04-12T00:47:37.140Z,98307.34
2023-04-12T00:50:07.174Z,98306.44
2023-04-12T00:52:35.662Z,98304.41
2023-04-12T00:55:05.659Z,98297.94
2023-04-12T00:57:37.209Z,98294.34
2023-04-12T01:00:08.365Z,98292.41
2023-04-12T01:02:39.474Z,98295.13
2023-04-12T01:05:09.558Z,98291.31
2023-04-12T01:07:45.192Z,98290.31
2023-04-12T01:10:25.778Z,98283.97
2023-04-12T01:13:01.726Z,98290.38
2023-04-12T01:15:35.899Z,98287.50
2023-04-12T01:18:09.937Z,98273.47
2023-04-12T01:20:45.087Z,98278.31
2023-04-12T01:23:43.141Z,98268.38
2023-04-12T01:26:23.104Z,98265.09
2023-04-12T01:28:55.364Z,98260.59
2023-04-12T01:31:26.179Z,98249.69
2023-04-12T01:33:56.205Z,98249.19
2023-04-12T01:36:26.460Z,98244.53
2023-04-12T01:38:56.200Z,98239.69
2023-04-12T01:41:24.646Z,98238.69
2023-04-12T01:43:54.124Z,98244.09
2023-04-12T01:46:25.067Z,98238.59
2023-04-12T01:48:54.925Z,98238.28
2023-04-12T01:51:36.160Z,98232.59
2023-04-12T01:54:11.739Z,98226.16
2023-04-12T01:56:42.930Z,98230.38
2023-04-12T01:59:15.705Z,98223.63
2023-04-12T02:01:45.230Z,98224.06
2023-04-12T02:04:14.226Z,98226.03
2023-04-12T02:06:43.766Z,98221.53
2023-04-12T02:09:11.874Z,98213.38
2023-04-12T02:11:39.965Z,98220.09
2023-04-12T02:14:08.250Z,98214.63
2023-04-12T02:16:37.980Z,98215.91
2023-04-12T02:19:08.522Z,98209.50
2023-04-12T02:21:42.457Z,98215.91
2023-04-12T02:24:10.812Z,98216.03
2023-04-12T02:26:39.104Z,98211.22
2023-04-12T02:29:10.426Z,98207.72
2023-04-12T02:31:40.075Z,98205.34
2023-04-12T02:34:08.452Z,98207.56
2023-04-12T02:36:38.143Z,98210.44
2023-04-12T02:39:06.684Z,98206.78
2023-04-12T02:41:34.885Z,98187.72
2023-04-12T02:44:03.651Z,98182.91
2023-04-12T02:46:32.156Z,98179.13
2023-04-12T02:49:02.038Z,98179.25
2023-04-12T02:51:30.135Z,98178.28
2023-04-12T02:53:58.441Z,98178.16
2023-04-12T02:56:26.625Z,98162.22
2023-04-12T02:58:54.849Z,98154.41
2023-04-12T03:01:24.066Z,98158.50
2023-04-12T03:03:52.305Z,98149.75
2023-04-12T03:06:21.923Z,98151.41
2023-04-12T03:08:49.929Z,98142.91
2023-04-12T03:11:18.263Z,98143.00
2023-04-12T03:13:46.441Z,98135.31
2023-04-12T03:16:25.013Z,98132.50
2023-04-12T03:18:53.187Z,98132.72
2023-04-12T03:21:22.682Z,98136.19
2023-04-12T03:23:51.302Z,98139.78
2023-04-12T03:26:20.690Z,98137.97
2023-04-12T03:28:49.592Z,98138.94
2023-04-12T03:31:21.779Z,98143.31
2023-04-12T03:33:50.136Z,98132.88
2023-04-12T03:36:18.623Z,98128.53
2023-04-12T03:38:48.157Z,98127.78
2023-04-12T03:41:17.125Z,98121.19
2023-04-12T03:43:45.244Z,98126.44
2023-04-12T03:46:15.621Z,98119.31
2023-04-12T03:48:44.020Z,98122.31
2023-04-12T03:51:12.359Z,98119.06
2023-04-12T03:53:40.945Z,98105.28
2023-04-12T03:56:12.671Z,98108.63
2023-04-12T03:58:41.079Z,98100.34
2023-04-12T04:01:09.444Z,98081.13
2023-04-12T04:03:38.033Z,98081.53
2023-04-12T04:06:07.467Z,98074.63
2023-04-12T04:08:35.686Z,98070.72
2023-04-12T04:11:04.024Z,98070.38
2023-04-12T04:13:33.672Z,98068.47
2023-04-12T04:16:05.254Z,98065.88
2023-04-12T04:18:36.014Z,98060.47
2023-04-12T04:21:04.581Z,98051.84
2023-04-12T04:23:39.305Z,98044.91
2023-04-12T04:26:10.775Z,98052.59
2023-04-12T04:28:45.614Z,98038.38
2023-04-12T04:31:17.733Z,98040.47
2023-04-12T04:33:46.341Z,98034.13
2023-04-12T04:36:15.943Z,98040.16
2023-04-12T04:38:44.105Z,98025.09
2023-04-12T04:41:12.461Z,98032.25
2023-04-12T04:43:42.924Z,98018.00
2023-04-12T04:46:12.465Z,98021.72
2023-04-12T04:48:41.014Z,98020.97
2023-04-12T04:51:09.168Z,98011.63
2023-04-12T04:53:37.474Z,98011.09
2023-04-12T04:56:06.096Z,98014.75
2023-04-12T04:58:34.411Z,97998.88
2023-04-12T05:01:05.476Z,97992.22
2023-04-12T05:03:34.386Z,97999.50
2023-04-12T05:06:03.614Z,97998.31
2023-04-12T05:08:33.262Z,97984.94
2023-04-12T05:11:01.585Z,97979.78
2023-04-12T05:13:31.272Z,97976.50
2023-04-12T05:15:59.364Z,97979.03
2023-04-12T05:18:28.894Z,97969.34
2023-04-12T05:20:56.892Z,97968.81
2023-04-12T05:23:25.261Z,97961.69
2023-04-12T05:25:53.720Z,97964.16
2023-04-12T05:28:22.095Z,97955.34
2023-04-12T05:30:50.169Z,97942.06
2023-04-12T05:33:18.244Z,97947.88
2023-04-12T05:35:47.713Z,97935.31
2023-04-12T05:38:16.002Z,97928.47
2023-04-12T05:40:45.151Z,97927.63
2023-04-12T05:43:13.864Z,97918.78
2023-04-12T05:45:42.778Z,97917.81
2023-04-12T05:48:11.131Z,97911.81
2023-04-12T05:50:39.420Z,97911.19
2023-04-12T05:53:10.727Z,97903.38
2023-04-12T05:55:40.534Z,97895.56
2023-04-12T05:58:08.555Z,97902.50
2023-04-12T06:00:37.598Z,97887.44
2023-04-12T06:03:05.847Z,97888.16
2023-04-12T06:05:35.734Z,97880.03
2023-04-12T06:08:05.491Z,97881.75
2023-04-12T06:10:35.558Z,97881.31
2023-04-12T06:13:03.653Z,97872.34
2023-04-12T06:15:33.628Z,97871.63
2023-04-12T06:18:02.606Z,97860.03
2023-04-12T06:20:30.793Z,97866.97
2023-04-12T06:22:58.889Z,97859.63
2023-04-12T06:25:27.213Z,97851.94
2023-04-12T06:27:56.934Z,97854.13
2023-04-12T06:30:25.174Z,97848.97
2023-04-12T06:32:53.693Z,97847.28
2023-04-12T06:35:22.672Z,97834.94
2023-04-12T06:37:50.833Z,97832.19
2023-04-12T06:40:19.618Z,97826.56
2023-04-12T06:42:48.202Z,97833.69
2023-04-12T06:45:17.816Z,97825.88
2023-04-12T06:47:45.977Z,97815.34
2023-04-12T06:50:14.136Z,97816.75
2023-04-12T06:52:42.322Z,97811.34
2023-04-12T06:55:11.089Z,97816.63
2023-04-12T06:57:39.228Z,97791.72
2023-04-12T07:00:09.234Z,97788.94
2023-04-12T07:02:39.538Z,97796.06
2023-04-12T07:05:08.591Z,97797.59
2023-04-12T07:07:36.735Z,97794.00
2023-04-12T07:10:05.643Z,97799.75
2023-04-12T07:12:33.784Z,97790.28
2023-04-12T07:15:01.938Z,97788.53
2023-04-12T07:17:32.419Z,97781.09
2023-04-12T07:20:02.573Z,97778.47
2023-04-12T07:22:30.574Z,97777.50
2023-04-12T07:24:58.912Z,97780.41
2023-04-12T07:27:27.214Z,97766.59
2023-04-12T07:29:55.664Z,97757.28
2023-04-12T07:32:24.734Z,97748.03
2023-04-12T07:34:53.253Z,97746.34
2023-04-12T07:37:22.902Z,97746.47
2023-04-12T07:39:51.417Z,97745.03
2023-04-12T07:42:20.131Z,97738.59
2023-04-12T07:44:48.333Z,97730.66
2023-04-12T07:47:16.657Z,97725.66
2023-04-12T07:49:44.750Z,97721.38
2023-04-12T07:52:12.838Z,97717.31
2023-04-12T07:54:43.090Z,97718.34
2023-04-12T07:57:11.525Z,97701.44
2023-04-12T07:59:39.593Z,97704.91
2023-04-12T08:02:08.786Z,97695.84
2023-04-12T08:04:36.985Z,97700.28
2023-04-12T08:07:05.145Z,97694.75
2023-04-12T08:09:35.258Z,97680.19
2023-04-12T08:12:05.358Z,97671.94
2023-04-12T08:14:33.649Z,97673.47
2023-04-12T08:17:02.076Z,97666.41
2023-04-12T08:19:30.525Z,97661.13
2023-04-12T08:21:58.944Z,97663.41
2023-04-12T08:24:27.200Z,97663.66
2023-04-12T08:26:56.283Z,97668.91
2023-04-12T08:29:25.972Z,97653.22
2023-04-12T08:31:56.507Z,97657.66
2023-04-12T08:34:25.182Z,97656.31
2023-04-12T08:36:54.944Z,97658.38
2023-04-12T08:39:23.392Z,97638.09
2023-04-12T08:41:53.245Z,97638.81
2023-04-12T08:44:34.130Z,97634.16
2023-04-12T08:47:05.361Z,97639.69
2023-04-12T08:49:36.382Z,97626.63
2023-04-12T08:52:06.895Z,97633.19
2023-04-12T08:54:37.276Z,97627.19
2023-04-12T08:57:06.981Z,97640.16
2023-04-12T08:59:39.621Z,97627.47
2023-04-12T09:02:09.889Z,97624.94
2023-04-12T09:04:51.226Z,97616.91
2023-04-12T09:07:20.030Z,97600.25
2023-04-12T09:09:49.398Z,97598.66
2023-04-12T09:12:20.183Z,97591.34
2023-04-12T09:14:48.817Z,97603.09
2023-04-12T09:17:26.597Z,97593.97
2023-04-12T09:19:56.538Z,97601.41
2023-04-12T09:22:36.178Z,97593.94
2023-04-12T09:25:04.851Z,97588.41
2023-04-12T09:27:47.900Z,97582.72
2023-04-12T09:30:18.301Z,97581.25
2023-04-12T09:32:49.757Z,97585.00
2023-04-12T09:35:18.014Z,97566.66
2023-04-12T09:37:46.499Z,97564.41
2023-04-12T09:40:15.992Z,97571.38
2023-04-12T09:42:53.615Z,97567.84
2023-04-12T09:45:24.536Z,97566.88
2023-04-12T09:47:56.956Z,97562.06
2023-04-12T09:50:26.774Z,97554.78
2023-04-12T09:52:55.756Z,97548.41
2023-04-12T09:55:25.848Z,97542.22
2023-04-12T09:57:56.769Z,97542.09
2023-04-12T10:00:27.265Z,97541.00
2023-04-12T10:02:59.271Z,97531.16
2023-04-12T10:05:28.491Z,97537.97
2023-04-12T10:07:58.553Z,97529.22
2023-04-12T10:10:27.461Z,97525.22
2023-04-12T10:12:56.057Z,97523.88
2023-04-12T10:15:25.703Z,97518.84
2023-04-12T10:17:54.986Z,97517.41
2023-04-12T10:20:29.020Z,97513.84
2023-04-12T10:22:59.561Z,97509.56
2023-04-12T10:25:31.130Z,97507.38
2023-04-12T10:28:14.073Z,97499.25
2023-04-12T10:30:42.511Z,97499.97
2023-04-12T10:33:16.911Z,97488.69
2023-04-12T10:35:56.454Z,97490.50
2023-04-12T10:38:27.409Z,97495.69
2023-04-12T10:41:15.497Z,97501.31
2023-04-12T10:43:44.080Z,97494.88
2023-04-12T10:46:48.708Z,97498.81
2023-04-12T10:49:17.956Z,97493.91
2023-04-12T10:52:21.262Z,97493.25
2023-04-12T10:54:51.100Z,97497.03
2023-04-12T10:57:47.422Z,97486.53
2023-04-12T11:00:17.161Z,97470.00
2023-04-12T11:03:13.155Z,97484.13
2023-04-12T11:06:16.325Z,97484.00
2023-04-12T11:08:56.624Z,97472.59
2023-04-12T11:11:27.687Z,97468.41
2023-04-12T11:13:59.753Z,97465.75
2023-04-12T11:16:28.190Z,97463.41
2023-04-12T11:18:57.179Z,97473.72
2023-04-12T11:21:27.123Z,97474.56
2023-04-12T11:23:58.293Z,97467.50
2023-04-12T11:26:33.855Z,97472.19
2023-04-12T11:29:08.777Z,97468.59
2023-04-12T11:31:39.688Z,97455.94
2023-04-12T11:34:07.836Z,97455.63
2023-04-12T11:36:36.023Z,97452.88
2023-04-12T11:39:05.686Z,97463.59
2023-04-12T11:41:33.991Z,97453.03
2023-04-12T11:44:07.165Z,97443.13
2023-04-12T11:46:35.810Z,97451.22
2023-04-12T11:49:03.990Z,97439.53
2023-04-12T11:51:33.928Z,97448.47
2023-04-12T11:54:02.427Z,97448.22
2023-04-12T11:56:33.117Z,97447.09
2023-04-12T11:59:01.880Z,97451.94
2023-04-12T12:01:35.807Z,97440.66
2023-04-12T12:04:04.451Z,97439.44
2023-04-12T12:06:33.776Z,97443.84
2023-04-12T12:09:04.040Z,97439.41
2023-04-12T12:11:33.897Z,97443.25
2023-04-12T12:14:02.279Z,97433.22
2023-04-12T12:16:32.302Z,97435.03
2023-04-12T12:19:05.728Z,97424.88
2023-04-12T12:21:34.418Z,97428.22
2023-04-12T12:24:04.155Z,97423.91
2023-04-12T12:26:33.989Z,97432.50
2023-04-12T12:29:02.331Z,97423.59
2023-04-12T12:31:31.429Z,97420.25
2023-04-12T12:34:05.013Z,97422.72
2023-04-12T12:36:39.085Z,97419.81
2023-04-12T12:39:10.972Z,97422.88
2023-04-12T12:41:42.294Z,97425.25
2023-04-12T12:44:11.544Z,97416.44
2023-04-12T12:46:53.471Z,97413.75
2023-04-12T12:49:24.031Z,97409.44
2023-04-12T12:51:54.044Z,97394.78
2023-04-12T12:54:39.536Z,97382.69
2023-04-12T12:57:11.150Z,97377.72
2023-04-12T12:59:39.816Z,97377.28
2023-04-12T13:02:09.011Z,97380.31
2023-04-12T13:04:37.822Z,97383.66
2023-04-12T13:07:06.542Z,97385.47
2023-04-12T13:09:34.775Z,97394.50
2023-04-12T13:12:03.491Z,97394.28
2023-04-12T13:14:33.282Z,97382.91
2023-04-12T13:17:01.995Z,97374.75
2023-04-12T13:19:31.297Z,97373.50
2023-04-12T13:21:59.779Z,97359.88
2023-04-12T13:24:28.251Z,97370.06
2023-04-12T13:26:58.494Z,97375.44
2023-04-12T13:29:27.016Z,97372.94
2023-04-12T13:31:56.839Z,97364.81
2023-04-12T13:34:24.989Z,97373.28
2023-04-12T13:36:53.366Z,97368.38
2023-04-12T13:39:22.002Z,97347.22
2023-04-12T13:41:50.398Z,97339.09
2023-04-12T13:44:18.719Z,97335.91
2023-04-12T13:46:48.028Z,97340.84
2023-04-12T13:49:17.514Z,97342.56
2023-04-12T13:51:45.850Z,97343.03
2023-04-12T13:54:15.620Z,97345.31
2023-04-12T13:56:44.048Z,97348.69
2023-04-12T13:59:12.518Z,97338.88
2023-04-12T14:01:40.762Z,97324.75
2023-04-12T14:04:11.042Z,97320.66
2023-04-12T14:06:41.181Z,97305.97
2023-04-12T14:09:09.701Z,97300.84
2023-04-12T14:11:48.337Z,97284.53
2023-04-12T14:14:17.137Z,97264.22
2023-04-12T14:16:46.039Z,97254.41
2023-04-12T14:19:14.171Z,97251.91
2023-04-12T14:21:44.018Z,97242.88
2023-04-12T14:24:12.717Z,97241.03
2023-04-12T14:26:41.425Z,97246.19
2023-04-12T14:29:09.778Z,97225.06
2023-04-12T14:31:38.229Z,97224.31
2023-04-12T14:34:08.973Z,97226.97
2023-04-12T14:36:37.312Z,97242.59
2023-04-12T14:39:10.236Z,97251.22
2023-04-12T14:41:40.103Z,97259.88
2023-04-12T14:44:09.901Z,97247.56
2023-04-12T14:46:38.369Z,97239.03
2023-04-12T14:49:07.147Z,97232.72
2023-04-12T14:51:35.543Z,97239.34
2023-04-12T14:54:03.568Z,97236.50
2023-04-12T14:56:38.309Z,97238.50
2023-04-12T14:59:09.354Z,97253.22
2023-04-12T15:01:38.283Z,97256.75
2023-04-12T15:04:07.554Z,97265.38
2023-04-12T15:06:37.478Z,97260.50
2023-04-12T15:09:06.569Z,97264.56
2023-04-12T15:11:38.657Z,97255.31
2023-04-12T15:14:07.556Z,97262.41
2023-04-12T15:16:36.240Z,97297.63
2023-04-12T15:19:11.473Z,97341.59
2023-04-12T15:21:46.846Z,97365.97
2023-04-12T15:24:15.164Z,97364.31
2023-04-12T15:26:44.993Z,97365.25
2023-04-12T15:29:13.568Z,97300.88
2023-04-12T15:31:42.158Z,97300.28
2023-04-12T15:34:13.479Z,97311.00
2023-04-12T15:36:43.359Z,97309.66
2023-04-12T15:39:15.257Z,97309.66
2023-04-12T15:41:45.226Z,97317.97
2023-04-12T15:44:14.201Z,97331.91
2023-04-12T15:46:42.993Z,97325.63
2023-04-12T15:49:11.712Z,97327.44
2023-04-12T15:51:40.063Z,97333.84
2023-04-12T15:54:10.698Z,97330.66
2023-04-12T15:56:39.941Z,97346.50
2023-04-12T15:59:11.470Z,97348.56
2023-04-12T16:01:40.162Z,97348.16
2023-04-12T16:04:08.756Z,97348.31
2023-04-12T16:06:38.380Z,97344.13
2023-04-12T16:09:07.376Z,97346.38
2023-04-12T16:11:35.674Z,97353.03
2023-04-12T16:14:03.982Z,97369.50
2023-04-12T16:16:33.616Z,97382.03
2023-04-12T16:19:02.068Z,97384.53
2023-04-12T16:21:30.440Z,97394.69
2023-04-12T16:23:58.907Z,97392.19
2023-04-12T16:26:27.371Z,97399.44
2023-04-12T16:28:55.654Z,97400.16
2023-04-12T16:31:25.611Z,97390.09
2023-04-12T16:33:55.558Z,97394.00
2023-04-12T16:36:25.669Z,97388.38
2023-04-12T16:38:55.399Z,97384.97
2023-04-12T16:41:23.948Z,97387.13
2023-04-12T16:43:53.980Z,97371.06
2023-04-12T16:46:23.047Z,97353.78
2023-04-12T16:48:51.183Z,97353.72
2023-04-12T16:51:21.258Z,97335.59
2023-04-12T16:53:49.456Z,97333.94
2023-04-12T16:56:18.618Z,97338.88
2023-04-12T16:58:48.907Z,97341.00
2023-04-12T17:01:17.742Z,97333.94
2023-04-12T17:03:47.197Z,97343.22
2023-04-12T17:06:15.608Z,97334.47
2023-04-12T17:08:46.444Z,97338.72
2023-04-12T17:11:15.343Z,97339.59
2023-04-12T17:13:44.880Z,97331.06
2023-04-12T17:16:16.278Z,97342.34
2023-04-12T17:18:44.794Z,97342.66
2023-04-12T17:21:17.095Z,97348.97
2023-04-12T17:23:47.500Z,97344.53
2023-04-12T17:26:16.061Z,97350.22
2023-04-12T17:28:44.097Z,97357.19
2023-04-12T17:31:12.561Z,97352.19
2023-04-12T17:33:40.857Z,97349.44
2023-04-12T17:36:11.832Z,97345.59
2023-04-12T17:38:40.247Z,97345.28
2023-04-12T17:41:10.614Z,97337.84
2023-04-12T17:43:39.153Z,97337.25
2023-04-12T17:46:07.503Z,97345.84
2023-04-12T17:48:36.008Z,97351.44
2023-04-12T17:51:05.576Z,97353.59
2023-04-12T17:53:33.784Z,97352.19
2023-04-12T17:56:02.288Z,97364.59
2023-04-12T17:58:33.008Z,97373.63
2023-04-12T18:01:03.088Z,97385.56
2023-04-12T18:03:31.975Z,97421.09
2023-04-12T18:06:00.901Z,97472.03
2023-04-12T18:08:29.258Z,97493.69
2023-04-12T18:10:57.900Z,97492.88
2023-04-12T18:13:26.322Z,97500.19
2023-04-12T18:15:55.807Z,97512.41
2023-04-12T18:18:23.945Z,97519.69
2023-04-12T18:20:52.042Z,97527.97
2023-04-12T18:23:20.298Z,97530.47
2023-04-12T18:25:48.453Z,97525.41
2023-04-12T18:28:18.017Z,97528.88
2023-04-12T18:30:46.300Z,97532.88
2023-04-12T18:33:16.937Z,97537.63
2023-04-12T18:35:45.219Z,97543.75
2023-04-12T18:38:13.545Z,97558.50
2023-04-12T18:40:41.824Z,97542.34
2023-04-12T18:43:10.222Z,97559.53
2023-04-12T18:45:41.018Z,97562.75
2023-04-12T18:48:09.997Z,97574.44
2023-04-12T18:50:40.160Z,97579.56
2023-04-12T18:53:08.816Z,97588.25
2023-04-12T18:55:37.221Z,97584.78
2023-04-12T18:58:05.727Z,97579.28
2023-04-12T19:00:34.691Z,97589.13
2023-04-12T19:03:02.832Z,97582.66
2023-04-12T19:05:31.124Z,97597.28
2023-04-12T19:08:01.655Z,97603.78
2023-04-12T19:10:33.355Z,97604.13
2023-04-12T19:13:02.339Z,97615.03
2023-04-12T19:15:32.012Z,97621.03
2023-04-12T19:18:01.842Z,97634.97
2023-04-12T19:20:30.278Z,97642.38
2023-04-12T19:22:58.596Z,97637.69
2023-04-12T19:25:31.683Z,97629.38
2023-04-12T19:28:00.636Z,97618.34
2023-04-12T19:30:30.782Z,97625.06
2023-04-12T19:32:59.829Z,97618.63
2023-04-12T19:35:32.830Z,97617.16
2023-04-12T19:38:01.132Z,97626.50
2023-04-12T19:40:31.391Z,97609.50
2023-04-12T19:42:59.451Z,97611.69
2023-04-12T19:45:28.080Z,97613.84
2023-04-12T19:47:56.480Z,97605.28
2023-04-12T19:50:25.161Z,97583.81
2023-04-12T19:52:53.205Z,97579.81
2023-04-12T19:55:21.723Z,97581.94
2023-04-12T19:57:52.207Z,97587.09
2023-04-12T20:00:22.857Z,97603.00
2023-04-12T20:02:52.193Z,97602.81
2023-04-12T20:05:22.506Z,97595.53
2023-04-12T20:07:52.808Z,97594.88
2023-04-12T20:10:21.203Z,97606.34
2023-04-12T20:12:50.820Z,97616.94
2023-04-12T20:15:19.689Z,97616.94
2023-04-12T20:17:48.629Z,97613.84
2023-04-12T20:20:17.534Z,97623.94
2023-04-12T20:22:47.993Z,97617.34
2023-04-12T20:25:16.699Z,97615.69
2023-04-12T20:27:51.693Z,97616.41
2023-04-12T20:30:23.074Z,97613.91
2023-04-12T20:32:54.748Z,97607.41
2023-04-12T20:35:24.839Z,97609.91
2023-04-12T20:37:53.325Z,97610.53
2023-04-12T20:40:23.389Z,97619.91
2023-04-12T20:42:52.051Z,97615.34
2023-04-12T20:45:23.478Z,97628.38
2023-04-12T20:47:52.162Z,97629.09
2023-04-12T20:50:23.144Z,97633.53
2023-04-12T20:52:52.429Z,97634.84
2023-04-12T20:55:22.764Z,97640.69
2023-04-12T20:57:50.765Z,97640.94
2023-04-12T21:00:23.871Z,97634.69
2023-04-12T21:02:55.042Z,97631.94
2023-04-12T21:05:23.395Z,97643.06
2023-04-12T21:07:52.054Z,97633.13
2023-04-12T21:10:20.443Z,97639.44
2023-04-12T21:12:48.477Z,97644.22
2023-04-12T21:15:22.108Z,97641.34
2023-04-12T21:17:54.255Z,97643.66
2023-04-12T21:20:24.809Z,97648.13
2023-04-12T21:22:53.805Z,97652.09
2023-04-12T21:25:23.404Z,97644.31
2023-04-12T21:27:51.621Z,97648.81
2023-04-12T21:30:21.176Z,97650.56
2023-04-12T21:32:51.898Z,97650.44
2023-04-12T21:35:22.965Z,97645.25
2023-04-12T21:37:53.234Z,97648.63
2023-04-12T21:40:21.408Z,97648.81
2023-04-12T21:42:51.047Z,97654.75
2023-04-12T21:45:19.720Z,97654.56
2023-04-12T21:47:47.857Z,97657.59
2023-04-12T21:50:16.110Z,97662.78
2023-04-12T21:52:45.944Z,97664.22
2023-04-12T21:55:16.145Z,97675.16
2023-04-12T21:57:44.739Z,97683.78
2023-04-12T22:00:14.180Z,97675.91
2023-04-12T22:02:42.724Z,97671.81
2023-04-12T22:05:11.972Z,97678.97
2023-04-12T22:07:41.720Z,97685.09
2023-04-12T22:10:12.258Z,97682.94
2023-04-12T22:12:42.462Z,97684.09
2023-04-12T22:15:13.782Z,97688.31
2023-04-12T22:17:42.033Z,97692.81
2023-04-12T22:20:11.175Z,97687.91
2023-04-12T22:22:39.403Z,97685.69
2023-04-12T22:25:12.183Z,97690.63
2023-04-12T22:27:42.271Z,97689.22
2023-04-12T22:30:12.009Z,97690.72
2023-04-12T22:32:40.668Z,97690.56
2023-04-12T22:35:10.375Z,97680.50
2023-04-12T22:37:39.115Z,97678.06
2023-04-12T22:40:11.905Z,97683.25
2023-04-12T22:42:46.948Z,97676.56
2023-04-12T22:45:16.090Z,97670.28
2023-04-12T22:47:44.351Z,97671.66
2023-04-12T22:50:13.395Z,97676.06
2023-04-12T22:52:42.199Z,97678.47
2023-04-12T22:55:13.160Z,97684.63
2023-04-12T22:57:43.712Z,97681.69
2023-04-12T23:00:16.801Z,97678.63
2023-04-12T23:02:46.763Z,97677.97
2023-04-12T23:05:16.611Z,97691.00
2023-04-12T23:07:44.871Z,97679.88
2023-04-12T23:10:13.415Z,97677.69
2023-04-12T23:12:43.167Z,97689.41
2023-04-12T23:15:12.866Z,97683.25
2023-04-12T23:17:41.135Z,97678.63
2023-04-12T23:20:13.374Z,97681.56
2023-04-12T23:22:57.236Z,97680.50
2023-04-12T23:25:29.238Z,97673.97
2023-04-12T23:27:59.051Z,97673.78
2023-04-12T23:30:29.944Z,97666.44
2023-04-12T23:32:58.601Z,97665.25
2023-04-12T23:35:28.000Z,97663.81
2023-04-12T23:37:56.326Z,97664.53
2023-04-12T23:40:25.260Z,97676.41
2023-04-12T23:42:53.338Z,97678.41
2023-04-12T23:45:22.897Z,97671.03
2023-04-12T23:47:51.252Z,97678.22
2023-04-12T23:50:19.589Z,97684.16
2023-04-12T23:52:47.851Z,97687.31
2023-04-12T23:55:16.869Z,97687.03
2023-04-12T23:57:45.097Z,97675.53
